createdAt,value
2022-09-20T00:01:40.457Z,9.10
2022-09-20T00:04:09.200Z,9.06
2022-09-20T00:06:37.354Z,9.06
2022-09-20T00:09:09.637Z,9.05
2022-09-20T00:11:38.293Z,9.03
2022-09-20T00:14:09.318Z,9.00
2022-09-20T00:16:41.688Z,8.99
2022-09-20T00:19:20.713Z,8.97
2022-09-20T00:21:49.079Z,8.91
2022-09-20T00:24:17.028Z,8.85
2022-09-20T00:26:44.878Z,8.87
2022-09-20T00:29:16.110Z,8.84
2022-09-20T00:31:44.069Z,8.88
2022-09-20T00:34:32.031Z,8.87
2022-09-20T00:37:00.020Z,8.78
2022-09-20T00:39:27.908Z,8.87
2022-09-20T00:41:56.795Z,8.89
2022-09-20T00:45:21.904Z,8.92
2022-09-20T00:48:32.991Z,8.89
2022-09-20T00:51:08.808Z,8.97
2022-09-20T00:53:42.761Z,8.96
2022-09-20T00:56:26.235Z,8.91
2022-09-20T00:59:06.322Z,8.96
2022-09-20T01:01:35.093Z,8.97
2022-09-20T01:04:04.953Z,8.99
2022-09-20T01:06:37.983Z,9.01
2022-09-20T01:09:08.513Z,9.04
2022-09-20T01:11:37.940Z,9.06
2022-09-20T01:14:07.894Z,9.08
2022-09-20T01:16:36.965Z,9.11
2022-09-20T01:19:17.791Z,9.10
2022-09-20T01:21:47.266Z,9.08
2022-09-20T01:24:23.291Z,9.07
2022-09-20T01:27:11.010Z,9.15
2022-09-20T01:30:08.893Z,9.42
2022-09-20T01:33:17.992Z,9.70
2022-09-20T01:35:51.704Z,10.09
2022-09-20T01:38:38.452Z,10.39
2022-09-20T01:41:25.205Z,10.65
2022-09-20T01:44:22.037Z,10.92
2022-09-20T01:47:00.493Z,11.14
2022-09-20T01:49:48.082Z,11.36
2022-09-20T01:52:40.355Z,11.59
2022-09-20T01:55:40.018Z,11.81
2022-09-20T01:58:07.974Z,11.96
2022-09-20T02:00:41.895Z,12.13
2022-09-20T02:03:10.126Z,12.27
2022-09-20T02:06:03.018Z,12.32
2022-09-20T02:09:11.001Z,12.61
2022-09-20T02:11:57.283Z,12.83
2022-09-20T02:14:45.474Z,12.98
2022-09-20T02:17:34.223Z,13.25
2022-09-20T02:20:11.916Z,13.43
2022-09-20T02:22:49.989Z,13.62
2022-09-20T02:25:24.304Z,13.64
2022-09-20T02:28:22.388Z,13.64
2022-09-20T02:31:13.036Z,13.76
2022-09-20T02:33:58.633Z,13.74
2022-09-20T02:36:58.496Z,13.76
2022-09-20T02:39:57.537Z,13.79
2022-09-20T02:42:53.510Z,13.87
2022-09-20T02:45:36.361Z,14.06
2022-09-20T02:48:06.128Z,14.22
2022-09-20T02:51:17.729Z,14.40
2022-09-20T02:54:09.431Z,14.58
2022-09-20T02:56:49.000Z,14.66
2022-09-20T02:59:35.430Z,14.78
2022-09-20T03:02:31.394Z,14.89
2022-09-20T03:05:36.737Z,14.76
2022-09-20T03:08:16.641Z,14.72
2022-09-20T03:11:04.490Z,14.69
2022-09-20T03:13:57.357Z,14.80
2022-09-20T03:16:50.025Z,14.93
2022-09-20T03:19:34.135Z,15.07
2022-09-20T03:22:26.908Z,15.19
2022-09-20T03:25:16.388Z,15.19
2022-09-20T03:27:59.935Z,15.28
2022-09-20T03:31:01.790Z,15.37
2022-09-20T03:33:45.614Z,15.62
2022-09-20T03:36:37.948Z,15.77
2022-09-20T03:39:46.352Z,15.96
2022-09-20T03:42:33.159Z,16.03
2022-09-20T03:45:31.358Z,15.86
2022-09-20T03:48:20.461Z,15.85
2022-09-20T03:50:56.975Z,16.08
2022-09-20T03:53:30.616Z,16.23
2022-09-20T03:56:38.912Z,16.41
2022-09-20T03:59:22.551Z,16.70
2022-09-20T04:02:08.442Z,16.91
2022-09-20T04:04:58.627Z,16.99
2022-09-20T04:07:46.970Z,17.01
2022-09-20T04:10:43.132Z,17.19
2022-09-20T04:13:38.694Z,17.28
2022-09-20T04:16:30.576Z,17.37
2022-09-20T04:19:05.391Z,17.19
2022-09-20T04:21:57.083Z,17.16
2022-09-20T04:24:39.332Z,17.39
2022-09-20T04:27:17.541Z,17.27
2022-09-20T04:29:50.235Z,17.34
2022-09-20T04:32:48.824Z,17.44
2022-09-20T04:36:15.449Z,17.41
2022-09-20T04:38:43.695Z,17.50
2022-09-20T04:41:49.830Z,17.54
2022-09-20T04:44:48.405Z,17.72
2022-09-20T04:47:32.649Z,17.92
2022-09-20T04:50:49.586Z,17.98
2022-09-20T04:53:47.026Z,17.75
2022-09-20T04:56:29.590Z,17.37
2022-09-20T04:59:07.414Z,17.15
2022-09-20T05:01:47.411Z,16.73
2022-09-20T05:04:57.029Z,16.45
2022-09-20T05:07:49.678Z,16.51
2022-09-20T05:10:53.793Z,16.45
2022-09-20T05:13:52.960Z,16.35
2022-09-20T05:16:28.012Z,16.24
2022-09-20T05:19:27.022Z,16.28
2022-09-20T05:22:24.471Z,16.41
2022-09-20T05:25:08.786Z,16.55
2022-09-20T05:28:03.565Z,16.85
2022-09-20T05:30:54.805Z,16.75
2022-09-20T05:34:00.010Z,16.81
2022-09-20T05:36:57.030Z,16.96
2022-09-20T05:39:33.512Z,16.80
2022-09-20T05:42:17.002Z,16.75
2022-09-20T05:44:48.266Z,16.63
2022-09-20T05:47:40.904Z,16.66
2022-09-20T05:50:47.335Z,16.88
2022-09-20T05:53:57.725Z,16.83
2022-09-20T05:56:43.403Z,16.60
2022-09-20T05:59:17.068Z,16.39
2022-09-20T06:02:08.155Z,16.06
2022-09-20T06:04:47.908Z,15.86
2022-09-20T06:07:48.854Z,15.74
2022-09-20T06:10:32.002Z,15.73
2022-09-20T06:13:24.222Z,15.80
2022-09-20T06:16:07.334Z,16.00
2022-09-20T06:18:39.885Z,16.12
2022-09-20T06:21:52.783Z,16.12
2022-09-20T06:24:41.063Z,16.24
2022-09-20T06:27:20.042Z,16.42
2022-09-20T06:30:01.535Z,16.25
2022-09-20T06:32:32.020Z,16.48
2022-09-20T06:35:03.055Z,16.33
2022-09-20T06:38:10.965Z,16.15
2022-09-20T06:41:19.957Z,16.18
2022-09-20T06:43:51.151Z,16.28
2022-09-20T06:46:19.847Z,16.46
2022-09-20T06:48:47.856Z,16.57
2022-09-20T06:51:17.094Z,16.46
2022-09-20T06:53:45.333Z,16.25
2022-09-20T06:56:20.364Z,16.06
2022-09-20T06:58:50.623Z,15.98
2022-09-20T07:01:29.344Z,15.94
2022-09-20T07:04:00.468Z,15.92
2022-09-20T07:06:30.143Z,15.95
2022-09-20T07:08:58.014Z,16.05
2022-09-20T07:11:26.422Z,16.06
2022-09-20T07:13:56.543Z,16.04
2022-09-20T07:16:26.899Z,16.10
2022-09-20T07:18:55.192Z,16.09
2022-09-20T07:21:23.569Z,16.18
2022-09-20T07:23:52.022Z,16.19
2022-09-20T07:26:27.393Z,16.22
2022-09-20T07:28:56.388Z,16.20
2022-09-20T07:31:26.991Z,16.13
2022-09-20T07:33:58.743Z,16.11
2022-09-20T07:36:26.692Z,16.17
2022-09-20T07:38:54.611Z,16.18
2022-09-20T07:41:25.105Z,16.25
2022-09-20T07:43:53.084Z,16.39
2022-09-20T07:46:23.133Z,16.62
2022-09-20T07:48:51.480Z,16.65
2022-09-20T07:51:19.474Z,16.74
2022-09-20T07:53:47.416Z,16.78
2022-09-20T07:56:19.592Z,17.00
2022-09-20T07:58:52.217Z,17.16
2022-09-20T08:01:23.061Z,17.25
2022-09-20T08:03:52.885Z,17.37
2022-09-20T08:06:21.986Z,17.43
2022-09-20T08:08:50.335Z,17.49
2022-09-20T08:11:27.861Z,17.49
2022-09-20T08:14:13.089Z,17.63
2022-09-20T08:16:49.773Z,17.82
2022-09-20T08:19:21.519Z,18.00
2022-09-20T08:21:51.481Z,18.12
2022-09-20T08:24:20.177Z,18.05
2022-09-20T08:26:52.325Z,17.97
2022-09-20T08:29:38.781Z,17.88
2022-09-20T08:32:07.386Z,17.77
2022-09-20T08:34:35.337Z,17.75
2022-09-20T08:37:03.311Z,17.75
2022-09-20T08:40:01.373Z,17.74
2022-09-20T08:42:36.713Z,17.71
2022-09-20T08:45:33.794Z,17.67
2022-09-20T08:48:07.770Z,17.62
2022-09-20T08:50:38.218Z,17.52
2022-09-20T08:53:06.439Z,17.52
2022-09-20T08:55:37.073Z,17.44
2022-09-20T08:58:09.032Z,17.37
2022-09-20T09:00:38.727Z,17.25
2022-09-20T09:03:13.389Z,17.18
2022-09-20T09:05:51.067Z,17.10
2022-09-20T09:08:25.367Z,17.12
2022-09-20T09:10:59.129Z,17.14
2022-09-20T09:13:54.066Z,17.16
2022-09-20T09:16:33.633Z,17.10
2022-09-20T09:19:36.554Z,17.19
2022-09-20T09:22:07.176Z,17.17
2022-09-20T09:24:35.128Z,17.08
2022-09-20T09:27:13.706Z,16.89
2022-09-20T09:29:56.504Z,16.81
2022-09-20T09:32:33.671Z,16.81
2022-09-20T09:35:28.804Z,16.77
2022-09-20T09:38:02.572Z,16.70
2022-09-20T09:40:32.802Z,16.99
2022-09-20T09:43:04.361Z,17.33
2022-09-20T09:45:39.261Z,17.33
2022-09-20T09:48:38.449Z,17.17
2022-09-20T09:51:26.096Z,17.08
2022-09-20T09:53:55.839Z,17.02
2022-09-20T09:56:29.228Z,16.97
2022-09-20T09:59:26.024Z,16.95
2022-09-20T10:02:20.123Z,16.99
2022-09-20T10:05:02.641Z,17.04
2022-09-20T10:08:11.674Z,17.06
2022-09-20T10:11:15.998Z,17.04
2022-09-20T10:14:30.302Z,16.92
2022-09-20T10:17:16.535Z,16.80
2022-09-20T10:20:02.634Z,16.74
2022-09-20T10:23:39.394Z,16.61
2022-09-20T10:26:14.904Z,16.56
2022-09-20T10:29:09.260Z,16.52
2022-09-20T10:32:08.144Z,16.47
2022-09-20T10:35:19.299Z,16.44
2022-09-20T10:38:12.042Z,16.45
2022-09-20T10:41:14.123Z,16.50
2022-09-20T10:44:07.989Z,16.58
2022-09-20T10:46:57.588Z,16.63
2022-09-20T10:49:52.039Z,16.59
2022-09-20T10:52:50.019Z,16.65
2022-09-20T10:55:45.939Z,16.65
2022-09-20T10:58:29.079Z,16.63
2022-09-20T11:01:29.308Z,16.57
2022-09-20T11:04:34.033Z,16.48
2022-09-20T11:07:20.023Z,16.33
2022-09-20T11:09:58.994Z,16.39
2022-09-20T11:12:43.918Z,16.42
2022-09-20T11:15:22.050Z,16.40
2022-09-20T11:18:02.285Z,16.29
2022-09-20T11:20:38.980Z,16.24
2022-09-20T11:23:22.582Z,16.09
2022-09-20T11:25:55.205Z,16.13
2022-09-20T11:28:52.189Z,15.98
2022-09-20T11:31:50.756Z,16.00
2022-09-20T11:34:32.969Z,15.89
2022-09-20T11:37:05.327Z,15.84
2022-09-20T11:39:55.523Z,15.80
2022-09-20T11:42:33.922Z,15.74
2022-09-20T11:45:01.891Z,15.66
2022-09-20T11:47:54.662Z,15.62
2022-09-20T11:51:03.545Z,15.57
2022-09-20T11:53:59.605Z,15.53
2022-09-20T11:56:31.688Z,15.47
2022-09-20T11:59:03.668Z,15.33
2022-09-20T12:01:43.197Z,15.32
2022-09-20T12:04:38.832Z,15.24
2022-09-20T12:07:20.503Z,15.22
2022-09-20T12:10:01.420Z,15.12
2022-09-20T12:12:35.439Z,15.06
2022-09-20T12:15:23.228Z,15.00
2022-09-20T12:17:52.124Z,14.94
2022-09-20T12:20:33.659Z,14.89
2022-09-20T12:23:43.036Z,14.82
2022-09-20T12:26:14.154Z,14.71
2022-09-20T12:28:46.393Z,14.59
2022-09-20T12:31:27.143Z,14.52
2022-09-20T12:34:01.860Z,14.40
2022-09-20T12:36:34.885Z,14.40
2022-09-20T12:39:12.110Z,14.34
2022-09-20T12:42:02.685Z,14.26
2022-09-20T12:44:41.398Z,14.18
2022-09-20T12:47:12.356Z,14.13
2022-09-20T12:50:10.569Z,14.07
2022-09-20T12:52:59.228Z,14.00
2022-09-20T12:55:49.013Z,13.89
2022-09-20T12:58:17.009Z,13.84
2022-09-20T13:00:59.857Z,13.77
2022-09-20T13:03:37.013Z,13.67
2022-09-20T13:06:10.986Z,13.57
2022-09-20T13:08:51.139Z,13.45
2022-09-20T13:11:42.503Z,13.33
2022-09-20T13:14:16.445Z,13.24
2022-09-20T13:16:52.753Z,13.03
2022-09-20T13:19:22.331Z,12.96
2022-09-20T13:22:14.243Z,12.85
2022-09-20T13:24:49.708Z,12.61
2022-09-20T13:27:39.894Z,12.67
2022-09-20T13:30:27.578Z,12.54
2022-09-20T13:32:56.711Z,12.44
2022-09-20T13:35:33.131Z,12.30
2022-09-20T13:38:08.452Z,12.22
2022-09-20T13:40:44.444Z,11.87
2022-09-20T13:43:38.072Z,12.05
2022-09-20T13:46:17.656Z,11.94
2022-09-20T13:49:20.209Z,11.92
2022-09-20T13:51:49.800Z,11.86
2022-09-20T13:54:28.935Z,11.81
2022-09-20T13:57:03.898Z,11.49
2022-09-20T13:59:43.161Z,11.43
2022-09-20T14:02:40.978Z,11.53
2022-09-20T14:05:21.775Z,11.45
2022-09-20T14:07:52.251Z,11.38
2022-09-20T14:10:51.321Z,11.29
2022-09-20T14:13:19.475Z,11.25
2022-09-20T14:15:48.944Z,11.20
2022-09-20T14:18:25.457Z,11.13
2022-09-20T14:20:55.196Z,11.03
2022-09-20T14:23:28.819Z,10.90
2022-09-20T14:26:18.089Z,10.85
2022-09-20T14:28:46.515Z,10.79
2022-09-20T14:31:22.979Z,10.66
2022-09-20T14:34:15.969Z,10.70
2022-09-20T14:36:44.326Z,10.67
2022-09-20T14:39:17.166Z,10.63
2022-09-20T14:41:48.900Z,10.58
2022-09-20T14:44:31.392Z,10.47
2022-09-20T14:47:02.911Z,10.38
2022-09-20T14:49:34.507Z,10.27
2022-09-20T14:52:32.978Z,10.21
2022-09-20T14:55:20.642Z,10.16
2022-09-20T14:57:49.990Z,10.15
2022-09-20T15:00:21.279Z,10.06
2022-09-20T15:02:49.418Z,9.97
2022-09-20T15:05:29.768Z,9.75
2022-09-20T15:08:00.225Z,9.63
2022-09-20T15:10:30.423Z,9.63
2022-09-20T15:12:59.645Z,9.65
2022-09-20T15:15:27.769Z,9.59
2022-09-20T15:17:55.948Z,9.53
2022-09-20T15:20:24.908Z,9.45
2022-09-20T15:22:52.959Z,9.34
2022-09-20T15:25:21.979Z,9.29
2022-09-20T15:27:51.902Z,9.18
2022-09-20T15:30:23.028Z,9.18
2022-09-20T15:32:50.971Z,8.96
2022-09-20T15:35:21.010Z,9.05
2022-09-20T15:37:49.089Z,8.98
2022-09-20T15:40:35.542Z,8.93
2022-09-20T15:43:03.524Z,8.69
2022-09-20T15:45:31.629Z,8.74
2022-09-20T15:47:59.815Z,8.72
2022-09-20T15:50:27.944Z,8.60
2022-09-20T15:52:59.945Z,8.42
2022-09-20T15:55:28.499Z,8.43
2022-09-20T15:57:56.406Z,8.38
2022-09-20T16:00:24.338Z,8.31
2022-09-20T16:02:55.499Z,8.23
2022-09-20T16:05:23.384Z,8.14
2022-09-20T16:07:51.301Z,8.10
2022-09-20T16:10:19.572Z,8.05
2022-09-20T16:12:48.903Z,8.03
2022-09-20T16:15:16.862Z,7.97
2022-09-20T16:18:03.526Z,7.94
2022-09-20T16:20:31.434Z,7.93
2022-09-20T16:22:59.371Z,7.90
2022-09-20T16:25:29.002Z,7.79
2022-09-20T16:27:56.993Z,7.83
2022-09-20T16:30:24.936Z,7.79
2022-09-20T16:32:54.076Z,7.75
2022-09-20T16:35:22.097Z,7.70
2022-09-20T16:37:50.395Z,7.67
2022-09-20T16:40:18.530Z,7.54
2022-09-20T16:42:52.077Z,7.53
2022-09-20T16:45:20.376Z,7.42
2022-09-20T16:47:50.050Z,7.32
2022-09-20T16:50:18.088Z,7.22
2022-09-20T16:52:46.011Z,7.18
2022-09-20T16:55:14.248Z,7.13
2022-09-20T16:57:42.160Z,7.01
2022-09-20T17:00:12.497Z,6.99
2022-09-20T17:02:45.811Z,7.00
2022-09-20T17:05:15.898Z,6.99
2022-09-20T17:07:45.228Z,6.94
2022-09-20T17:10:18.069Z,6.82
2022-09-20T17:12:48.322Z,6.92
2022-09-20T17:15:17.155Z,6.89
2022-09-20T17:17:48.195Z,6.88
2022-09-20T17:20:16.341Z,6.77
2022-09-20T17:22:44.458Z,6.71
2022-09-20T17:25:12.795Z,6.64
2022-09-20T17:27:40.702Z,6.33
2022-09-20T17:30:10.682Z,6.57
2022-09-20T17:32:39.554Z,6.53
2022-09-20T17:35:08.020Z,6.46
2022-09-20T17:37:35.955Z,6.41
2022-09-20T17:40:04.655Z,6.35
2022-09-20T17:42:34.578Z,6.30
2022-09-20T17:45:02.593Z,6.25
2022-09-20T17:47:34.535Z,6.20
2022-09-20T17:50:02.407Z,6.15
2022-09-20T17:52:30.422Z,6.12
2022-09-20T17:54:58.596Z,6.10
2022-09-20T17:57:26.601Z,6.07
2022-09-20T17:59:54.489Z,5.97
2022-09-20T18:02:23.995Z,5.97
2022-09-20T18:04:53.443Z,5.92
2022-09-20T18:07:21.285Z,5.84
2022-09-20T18:09:50.487Z,5.88
2022-09-20T18:12:21.380Z,5.82
2022-09-20T18:14:49.585Z,5.75
2022-09-20T18:17:19.284Z,5.76
2022-09-20T18:19:47.211Z,5.73
2022-09-20T18:22:16.032Z,5.71
2022-09-20T18:24:45.779Z,5.66
2022-09-20T18:27:14.278Z,5.62
2022-09-20T18:29:42.247Z,5.62
2022-09-20T18:32:10.965Z,5.60
2022-09-20T18:34:39.068Z,5.57
2022-09-20T18:37:13.799Z,5.57
2022-09-20T18:39:44.567Z,5.52
2022-09-20T18:42:12.204Z,5.46
2022-09-20T18:44:41.333Z,5.38
2022-09-20T18:47:10.934Z,5.34
2022-09-20T18:49:38.839Z,5.27
2022-09-20T18:52:06.716Z,5.24
2022-09-20T18:54:34.735Z,5.16
2022-09-20T18:57:02.854Z,5.06
2022-09-20T18:59:31.335Z,5.10
2022-09-20T19:01:59.452Z,5.03
2022-09-20T19:04:36.993Z,4.98
2022-09-20T19:07:23.013Z,4.94
2022-09-20T19:09:57.990Z,4.91
2022-09-20T19:12:50.259Z,4.86
2022-09-20T19:15:36.724Z,4.87
2022-09-20T19:18:23.809Z,4.86
2022-09-20T19:21:01.125Z,4.83
2022-09-20T19:23:38.974Z,4.83
2022-09-20T19:26:25.558Z,4.80
2022-09-20T19:29:03.717Z,4.74
2022-09-20T19:31:34.748Z,4.84
2022-09-20T19:34:12.563Z,4.80
2022-09-20T19:36:49.725Z,4.84
2022-09-20T19:39:33.838Z,4.79
2022-09-20T19:42:10.624Z,4.73
2022-09-20T19:44:58.905Z,4.65
2022-09-20T19:48:05.117Z,4.56
2022-09-20T19:50:52.271Z,4.53
2022-09-20T19:53:22.988Z,4.48
2022-09-20T19:55:55.972Z,4.41
2022-09-20T19:58:24.316Z,4.37
2022-09-20T20:00:53.716Z,4.24
2022-09-20T20:03:26.008Z,4.27
2022-09-20T20:06:07.685Z,4.25
2022-09-20T20:08:44.049Z,4.22
2022-09-20T20:11:43.847Z,4.19
2022-09-20T20:14:27.060Z,4.19
2022-09-20T20:17:21.316Z,4.15
2022-09-20T20:20:19.606Z,4.08
2022-09-20T20:22:57.423Z,4.04
2022-09-20T20:26:03.528Z,3.99
2022-09-20T20:28:31.462Z,3.96
2022-09-20T20:31:02.712Z,3.93
2022-09-20T20:33:32.280Z,3.89
2022-09-20T20:36:02.300Z,3.85
2022-09-20T20:38:38.779Z,3.81
2022-09-20T20:41:09.469Z,3.80
2022-09-20T20:43:39.788Z,3.77
2022-09-20T20:46:10.419Z,3.73
2022-09-20T20:48:38.531Z,3.72
2022-09-20T20:51:12.200Z,3.65
2022-09-20T20:53:45.978Z,3.70
2022-09-20T20:56:29.370Z,3.70
2022-09-20T20:59:02.233Z,3.69
2022-09-20T21:01:36.045Z,3.68
2022-09-20T21:04:05.788Z,3.64
2022-09-20T21:06:37.064Z,3.62
2022-09-20T21:09:06.739Z,3.61
2022-09-20T21:11:36.638Z,3.62
2022-09-20T21:14:08.651Z,3.41
2022-09-20T21:16:41.623Z,3.37
2022-09-20T21:19:14.283Z,3.25
2022-09-20T21:21:48.036Z,3.53
2022-09-20T21:24:19.924Z,3.49
2022-09-20T21:26:48.199Z,3.45
2022-09-20T21:29:18.882Z,3.42
2022-09-20T21:31:47.748Z,3.39
2022-09-20T21:34:16.953Z,3.46
2022-09-20T21:36:45.278Z,3.46
2022-09-20T21:39:13.318Z,3.48
2022-09-20T21:41:42.392Z,3.46
2022-09-20T21:46:58.008Z,3.35
2022-09-20T21:49:26.006Z,3.32
2022-09-20T21:51:53.949Z,3.29
2022-09-20T21:54:21.799Z,3.25
2022-09-20T21:57:08.665Z,3.20
2022-09-20T21:59:36.532Z,3.16
2022-09-20T22:02:46.117Z,3.13
2022-09-20T22:05:14.078Z,3.11
2022-09-20T22:07:42.055Z,3.10
2022-09-20T22:10:10.173Z,3.07
2022-09-20T22:12:38.468Z,3.06
2022-09-20T22:15:07.038Z,3.03
2022-09-20T22:17:35.051Z,2.95
2022-09-20T22:20:04.782Z,3.01
2022-09-20T22:22:34.939Z,2.99
2022-09-20T22:25:07.551Z,2.97
2022-09-20T22:27:35.410Z,2.96
2022-09-20T22:30:05.054Z,2.94
2022-09-20T22:32:34.536Z,2.93
2022-09-20T22:35:02.429Z,2.91
2022-09-20T22:37:31.555Z,2.87
2022-09-20T22:39:59.953Z,2.84
2022-09-20T22:42:28.008Z,2.83
2022-09-20T22:44:55.920Z,2.81
2022-09-20T22:47:23.941Z,2.77
2022-09-20T22:49:51.834Z,2.65
2022-09-20T22:52:19.909Z,2.72
2022-09-20T22:54:48.990Z,2.72
2022-09-20T22:57:16.859Z,2.70
2022-09-20T22:59:44.776Z,2.66
2022-09-20T23:02:12.814Z,2.62
2022-09-20T23:04:40.802Z,2.63
2022-09-20T23:07:09.727Z,2.60
2022-09-20T23:09:38.960Z,2.45
2022-09-20T23:12:06.961Z,2.56
2022-09-20T23:14:34.840Z,2.44
2022-09-20T23:17:02.872Z,2.53
2022-09-20T23:19:30.788Z,2.53
2022-09-20T23:21:58.692Z,2.50
2022-09-20T23:24:28.533Z,2.50
2022-09-20T23:26:56.445Z,2.52
2022-09-20T23:29:26.720Z,2.50
2022-09-20T23:31:55.069Z,2.52
2022-09-20T23:34:22.944Z,2.32
2022-09-20T23:36:51.581Z,2.52
2022-09-20T23:39:19.664Z,2.54
2022-09-20T23:41:51.048Z,2.53
2022-09-20T23:44:19.772Z,2.50
2022-09-20T23:47:24.884Z,2.52
2022-09-20T23:49:52.808Z,2.43
2022-09-20T23:52:20.720Z,2.52
2022-09-20T23:54:48.769Z,2.54
2022-09-20T23:57:17.755Z,2.53
2022-09-20T23:59:45.651Z,2.53
